sensor_id;sensor_type;location;lat;lon;timestamp;P1;durP1;ratioP1;P2;durP2;ratioP2
1328;SDS011;658;48.820;9.354;2023-02-04T00:03:36;1.07;;;0.50;;
1328;SDS011;658;48.820;9.354;2023-02-04T00:07:37;0.70;;;0.50;;
1328;SDS011;658;48.820;9.354;2023-02-04T00:11:38;0.70;;;0.40;;
1328;SDS011;658;48.820;9.354;2023-02-04T00:15:38;1.00;;;0.90;;
1328;SDS011;658;48.820;9.354;2023-02-04T00:19:39;0.77;;;0.60;;
1328;SDS011;658;48.820;9.354;2023-02-04T00:23:40;0.60;;;0.60;;
1328;SDS011;658;48.820;9.354;2023-02-04T00:27:41;0.50;;;0.50;;
1328;SDS011;658;48.820;9.354;2023-02-04T00:31:41;0.70;;;0.67;;
1328;SDS011;658;48.820;9.354;2023-02-04T00:35:42;1.13;;;0.63;;
1328;SDS011;658;48.820;9.354;2023-02-04T00:39:43;0.60;;;0.60;;
1328;SDS011;658;48.820;9.354;2023-02-04T00:43:43;1.17;;;0.70;;
1328;SDS011;658;48.820;9.354;2023-02-04T00:47:44;0.63;;;0.53;;
1328;SDS011;658;48.820;9.354;2023-02-04T00:51:44;2.10;;;0.63;;
1328;SDS011;658;48.820;9.354;2023-02-04T00:55:45;0.70;;;0.70;;
1328;SDS011;658;48.820;9.354;2023-02-04T00:59:46;0.50;;;0.50;;
1328;SDS011;658;48.820;9.354;2023-02-04T01:03:46;0.50;;;0.50;;
1328;SDS011;658;48.820;9.354;2023-02-04T01:07:47;0.60;;;0.60;;
1328;SDS011;658;48.820;9.354;2023-02-04T01:11:47;0.87;;;0.87;;
1328;SDS011;658;48.820;9.354;2023-02-04T01:15:48;1.27;;;0.60;;
1328;SDS011;658;48.820;9.354;2023-02-04T01:19:49;0.60;;;0.60;;
1328;SDS011;658;48.820;9.354;2023-02-04T01:23:49;0.60;;;0.60;;
1328;SDS011;658;48.820;9.354;2023-02-04T01:27:50;1.10;;;1.00;;
1328;SDS011;658;48.820;9.354;2023-02-04T01:31:51;0.90;;;0.70;;
1328;SDS011;658;48.820;9.354;2023-02-04T01:35:51;0.70;;;0.60;;
1328;SDS011;658;48.820;9.354;2023-02-04T01:39:52;0.90;;;0.90;;
1328;SDS011;658;48.820;9.354;2023-02-04T01:43:53;0.60;;;0.60;;
1328;SDS011;658;48.820;9.354;2023-02-04T01:47:53;1.80;;;0.77;;
1328;SDS011;658;48.820;9.354;2023-02-04T01:51:54;0.57;;;0.57;;
1328;SDS011;658;48.820;9.354;2023-02-04T01:55:55;0.60;;;0.60;;
1328;SDS011;658;48.820;9.354;2023-02-04T01:59:55;1.13;;;0.83;;
1328;SDS011;658;48.820;9.354;2023-02-04T02:03:56;0.67;;;0.50;;
1328;SDS011;658;48.820;9.354;2023-02-04T02:07:57;0.50;;;0.50;;
1328;SDS011;658;48.820;9.354;2023-02-04T02:12:00;0.60;;;0.60;;
1328;SDS011;658;48.820;9.354;2023-02-04T02:16:02;0.70;;;0.60;;
1328;SDS011;658;48.820;9.354;2023-02-04T02:20:05;1.13;;;0.70;;
1328;SDS011;658;48.820;9.354;2023-02-04T02:24:29;0.70;;;0.70;;
1328;SDS011;658;48.820;9.354;2023-02-04T02:28:32;0.70;;;0.60;;
1328;SDS011;658;48.820;9.354;2023-02-04T02:32:32;0.93;;;0.50;;
1328;SDS011;658;48.820;9.354;2023-02-04T02:36:33;0.50;;;0.50;;
1328;SDS011;658;48.820;9.354;2023-02-04T02:40:34;0.60;;;0.60;;
1328;SDS011;658;48.820;9.354;2023-02-04T02:44:35;1.13;;;0.70;;
1328;SDS011;658;48.820;9.354;2023-02-04T02:48:35;0.90;;;0.57;;
1328;SDS011;658;48.820;9.354;2023-02-04T02:52:36;0.70;;;0.60;;
1328;SDS011;658;48.820;9.354;2023-02-04T02:56:37;0.63;;;0.50;;
1328;SDS011;658;48.820;9.354;2023-02-04T03:00:37;0.50;;;0.50;;
1328;SDS011;658;48.820;9.354;2023-02-04T03:04:42;0.70;;;0.70;;
1328;SDS011;658;48.820;9.354;2023-02-04T03:08:47;0.60;;;0.60;;
1328;SDS011;658;48.820;9.354;2023-02-04T03:12:50;0.70;;;0.70;;
1328;SDS011;658;48.820;9.354;2023-02-04T03:16:51;0.60;;;0.60;;
1328;SDS011;658;48.820;9.354;2023-02-04T03:20:53;0.93;;;0.70;;
1328;SDS011;658;48.820;9.354;2023-02-04T03:24:54;0.50;;;0.50;;
1328;SDS011;658;48.820;9.354;2023-02-04T03:28:57;0.60;;;0.60;;
1328;SDS011;658;48.820;9.354;2023-02-04T03:32:58;1.20;;;0.93;;
1328;SDS011;658;48.820;9.354;2023-02-04T03:36:58;1.10;;;0.67;;
1328;SDS011;658;48.820;9.354;2023-02-04T03:40:59;0.70;;;0.60;;
1328;SDS011;658;48.820;9.354;2023-02-04T03:45:00;1.17;;;0.90;;
1328;SDS011;658;48.820;9.354;2023-02-04T03:49:01;0.60;;;0.50;;
1328;SDS011;658;48.820;9.354;2023-02-04T03:53:01;0.50;;;0.50;;
1328;SDS011;658;48.820;9.354;2023-02-04T03:57:02;0.60;;;0.50;;
1328;SDS011;658;48.820;9.354;2023-02-04T04:01:03;1.13;;;0.80;;
1328;SDS011;658;48.820;9.354;2023-02-04T04:05:03;0.60;;;0.60;;
1328;SDS011;658;48.820;9.354;2023-02-04T04:09:04;0.70;;;0.70;;
1328;SDS011;658;48.820;9.354;2023-02-04T04:13:05;0.63;;;0.63;;
1328;SDS011;658;48.820;9.354;2023-02-04T04:17:06;0.60;;;0.57;;
1328;SDS011;658;48.820;9.354;2023-02-04T04:21:06;0.80;;;0.73;;
1328;SDS011;658;48.820;9.354;2023-02-04T04:25:07;0.80;;;0.60;;
1328;SDS011;658;48.820;9.354;2023-02-04T04:29:08;1.47;;;0.77;;
1328;SDS011;658;48.820;9.354;2023-02-04T04:33:08;0.87;;;0.70;;
1328;SDS011;658;48.820;9.354;2023-02-04T04:37:09;0.80;;;0.70;;
1328;SDS011;658;48.820;9.354;2023-02-04T04:41:09;1.00;;;0.90;;
1328;SDS011;658;48.820;9.354;2023-02-04T04:45:10;0.63;;;0.63;;
1328;SDS011;658;48.820;9.354;2023-02-04T04:49:11;0.73;;;0.73;;
1328;SDS011;658;48.820;9.354;2023-02-04T04:53:11;0.60;;;0.60;;
1328;SDS011;658;48.820;9.354;2023-02-04T04:57:12;1.37;;;0.90;;
1328;SDS011;658;48.820;9.354;2023-02-04T05:01:13;0.60;;;0.60;;
1328;SDS011;658;48.820;9.354;2023-02-04T05:05:13;1.90;;;0.70;;
1328;SDS011;658;48.820;9.354;2023-02-04T05:09:14;0.87;;;0.73;;
1328;SDS011;658;48.820;9.354;2023-02-04T05:13:16;2.20;;;0.97;;
1328;SDS011;658;48.820;9.354;2023-02-04T05:17:16;1.03;;;0.60;;
1328;SDS011;658;48.820;9.354;2023-02-04T05:21:17;1.00;;;0.90;;
1328;SDS011;658;48.820;9.354;2023-02-04T05:25:21;0.97;;;0.80;;
1328;SDS011;658;48.820;9.354;2023-02-04T05:29:22;0.90;;;0.63;;
1328;SDS011;658;48.820;9.354;2023-02-04T05:33:22;0.90;;;0.70;;
1328;SDS011;658;48.820;9.354;2023-02-04T05:37:23;1.17;;;0.63;;
1328;SDS011;658;48.820;9.354;2023-02-04T05:41:24;1.73;;;0.80;;
1328;SDS011;658;48.820;9.354;2023-02-04T05:45:24;0.67;;;0.60;;
1328;SDS011;658;48.820;9.354;2023-02-04T05:49:25;1.70;;;0.90;;
1328;SDS011;658;48.820;9.354;2023-02-04T05:53:25;1.23;;;0.70;;
1328;SDS011;658;48.820;9.354;2023-02-04T05:57:26;1.63;;;0.70;;
1328;SDS011;658;48.820;9.354;2023-02-04T06:01:27;0.80;;;0.70;;
1328;SDS011;658;48.820;9.354;2023-02-04T06:05:27;0.77;;;0.70;;
1328;SDS011;658;48.820;9.354;2023-02-04T06:09:28;0.80;;;0.67;;
1328;SDS011;658;48.820;9.354;2023-02-04T06:13:28;1.83;;;1.03;;
1328;SDS011;658;48.820;9.354;2023-02-04T06:17:29;0.90;;;0.63;;
1328;SDS011;658;48.820;9.354;2023-02-04T06:21:30;0.63;;;0.63;;
1328;SDS011;658;48.820;9.354;2023-02-04T06:25:30;1.03;;;0.70;;
1328;SDS011;658;48.820;9.354;2023-02-04T06:29:31;0.70;;;0.70;;
1328;SDS011;658;48.820;9.354;2023-02-04T06:33:31;0.83;;;0.77;;
1328;SDS011;658;48.820;9.354;2023-02-04T06:37:32;1.03;;;0.73;;
1328;SDS011;658;48.820;9.354;2023-02-04T06:41:33;2.20;;;0.80;;
1328;SDS011;658;48.820;9.354;2023-02-04T06:45:33;0.83;;;0.70;;
1328;SDS011;658;48.820;9.354;2023-02-04T06:49:34;1.03;;;0.80;;
1328;SDS011;658;48.820;9.354;2023-02-04T06:53:35;0.87;;;0.80;;
1328;SDS011;658;48.820;9.354;2023-02-04T06:57:36;1.83;;;0.90;;
1328;SDS011;658;48.820;9.354;2023-02-04T07:01:36;1.10;;;0.60;;
1328;SDS011;658;48.820;9.354;2023-02-04T07:05:37;1.00;;;0.90;;
1328;SDS011;658;48.820;9.354;2023-02-04T07:09:37;1.03;;;0.90;;
1328;SDS011;658;48.820;9.354;2023-02-04T07:13:39;0.70;;;0.70;;
1328;SDS011;658;48.820;9.354;2023-02-04T07:17:40;0.80;;;0.80;;
1328;SDS011;658;48.820;9.354;2023-02-04T07:21:41;1.10;;;0.83;;
1328;SDS011;658;48.820;9.354;2023-02-04T07:25:41;1.90;;;0.80;;
1328;SDS011;658;48.820;9.354;2023-02-04T07:29:43;1.07;;;0.60;;
1328;SDS011;658;48.820;9.354;2023-02-04T07:33:43;1.27;;;0.70;;
1328;SDS011;658;48.820;9.354;2023-02-04T07:37:44;1.10;;;0.73;;
1328;SDS011;658;48.820;9.354;2023-02-04T07:41:44;1.23;;;1.13;;
1328;SDS011;658;48.820;9.354;2023-02-04T07:45:45;1.00;;;0.80;;
1328;SDS011;658;48.820;9.354;2023-02-04T07:49:46;1.37;;;0.73;;
1328;SDS011;658;48.820;9.354;2023-02-04T07:53:46;0.90;;;0.80;;
1328;SDS011;658;48.820;9.354;2023-02-04T07:57:47;1.23;;;0.73;;
1328;SDS011;658;48.820;9.354;2023-02-04T08:01:48;1.00;;;0.90;;
1328;SDS011;658;48.820;9.354;2023-02-04T08:05:49;1.00;;;0.87;;
1328;SDS011;658;48.820;9.354;2023-02-04T08:09:49;0.80;;;0.77;;
1328;SDS011;658;48.820;9.354;2023-02-04T08:13:50;0.73;;;0.70;;
1328;SDS011;658;48.820;9.354;2023-02-04T08:17:50;0.70;;;0.70;;
1328;SDS011;658;48.820;9.354;2023-02-04T08:21:51;1.40;;;1.03;;
1328;SDS011;658;48.820;9.354;2023-02-04T08:25:52;1.00;;;0.80;;
1328;SDS011;658;48.820;9.354;2023-02-04T08:29:53;1.23;;;0.90;;
1328;SDS011;658;48.820;9.354;2023-02-04T08:33:54;1.10;;;1.00;;
1328;SDS011;658;48.820;9.354;2023-02-04T08:37:54;1.20;;;1.10;;
1328;SDS011;658;48.820;9.354;2023-02-04T08:41:55;0.80;;;0.80;;
1328;SDS011;658;48.820;9.354;2023-02-04T08:45:56;1.10;;;1.00;;
1328;SDS011;658;48.820;9.354;2023-02-04T08:49:56;1.13;;;1.03;;
1328;SDS011;658;48.820;9.354;2023-02-04T08:53:57;1.20;;;0.73;;
1328;SDS011;658;48.820;9.354;2023-02-04T08:57:57;0.93;;;0.73;;
1328;SDS011;658;48.820;9.354;2023-02-04T09:02:00;2.50;;;1.00;;
1328;SDS011;658;48.820;9.354;2023-02-04T09:06:02;1.70;;;0.90;;
1328;SDS011;658;48.820;9.354;2023-02-04T09:10:03;1.03;;;0.90;;
1328;SDS011;658;48.820;9.354;2023-02-04T09:14:04;1.27;;;0.90;;
1328;SDS011;658;48.820;9.354;2023-02-04T09:18:05;1.13;;;1.00;;
1328;SDS011;658;48.820;9.354;2023-02-04T09:22:14;1.13;;;0.80;;
1328;SDS011;658;48.820;9.354;2023-02-04T09:26:14;2.77;;;1.23;;
1328;SDS011;658;48.820;9.354;2023-02-04T09:30:16;2.30;;;1.00;;
1328;SDS011;658;48.820;9.354;2023-02-04T09:34:17;1.97;;;1.17;;
1328;SDS011;658;48.820;9.354;2023-02-04T09:38:18;1.63;;;1.10;;
1328;SDS011;658;48.820;9.354;2023-02-04T09:42:18;2.93;;;1.10;;
1328;SDS011;658;48.820;9.354;2023-02-04T09:46:24;1.53;;;1.07;;
1328;SDS011;658;48.820;9.354;2023-02-04T09:50:29;1.27;;;0.90;;
1328;SDS011;658;48.820;9.354;2023-02-04T09:54:31;1.33;;;1.10;;
1328;SDS011;658;48.820;9.354;2023-02-04T09:58:32;1.30;;;1.00;;
1328;SDS011;658;48.820;9.354;2023-02-04T10:02:34;1.30;;;0.90;;
1328;SDS011;658;48.820;9.354;2023-02-04T10:06:34;2.53;;;1.10;;
1328;SDS011;658;48.820;9.354;2023-02-04T10:10:36;1.83;;;1.00;;
1328;SDS011;658;48.820;9.354;2023-02-04T10:14:38;1.37;;;1.13;;
1328;SDS011;658;48.820;9.354;2023-02-04T10:18:39;1.53;;;1.00;;
1328;SDS011;658;48.820;9.354;2023-02-04T10:22:40;3.83;;;1.60;;
1328;SDS011;658;48.820;9.354;2023-02-04T10:26:41;1.73;;;0.90;;
1328;SDS011;658;48.820;9.354;2023-02-04T10:30:42;1.43;;;1.13;;
1328;SDS011;658;48.820;9.354;2023-02-04T10:34:42;1.10;;;1.00;;
1328;SDS011;658;48.820;9.354;2023-02-04T10:38:43;2.77;;;1.23;;
1328;SDS011;658;48.820;9.354;2023-02-04T10:42:47;1.37;;;0.90;;
1328;SDS011;658;48.820;9.354;2023-02-04T10:47:02;1.23;;;1.07;;
1328;SDS011;658;48.820;9.354;2023-02-04T10:51:09;1.43;;;1.20;;
1328;SDS011;658;48.820;9.354;2023-02-04T10:55:13;2.77;;;1.00;;
1328;SDS011;658;48.820;9.354;2023-02-04T10:59:20;1.27;;;1.00;;
1328;SDS011;658;48.820;9.354;2023-02-04T11:03:26;1.10;;;1.10;;
1328;SDS011;658;48.820;9.354;2023-02-04T11:07:29;1.10;;;1.00;;
1328;SDS011;658;48.820;9.354;2023-02-04T11:11:30;1.10;;;1.00;;
1328;SDS011;658;48.820;9.354;2023-02-04T11:19:37;2.30;;;1.33;;
1328;SDS011;658;48.820;9.354;2023-02-04T11:23:38;1.63;;;1.23;;
1328;SDS011;658;48.820;9.354;2023-02-04T11:27:39;1.03;;;0.93;;
1328;SDS011;658;48.820;9.354;2023-02-04T11:36:03;1.83;;;1.47;;
1328;SDS011;658;48.820;9.354;2023-02-04T11:40:47;1.90;;;1.10;;
1328;SDS011;658;48.820;9.354;2023-02-04T11:44:31;10.73;;;3.43;;
1328;SDS011;658;48.820;9.354;2023-02-04T11:48:34;6.47;;;3.17;;
1328;SDS011;658;48.820;9.354;2023-02-04T11:52:35;7.10;;;3.20;;
1328;SDS011;658;48.820;9.354;2023-02-04T11:56:36;4.43;;;2.40;;
1328;SDS011;658;48.820;9.354;2023-02-04T12:00:36;5.43;;;2.70;;
1328;SDS011;658;48.820;9.354;2023-02-04T12:04:37;4.50;;;2.20;;
1328;SDS011;658;48.820;9.354;2023-02-04T12:08:38;5.70;;;2.23;;
1328;SDS011;658;48.820;9.354;2023-02-04T12:12:48;2.77;;;2.20;;
1328;SDS011;658;48.820;9.354;2023-02-04T12:16:54;3.70;;;2.00;;
1328;SDS011;658;48.820;9.354;2023-02-04T12:20:55;2.63;;;1.87;;
1328;SDS011;658;48.820;9.354;2023-02-04T12:24:56;3.67;;;2.40;;
1328;SDS011;658;48.820;9.354;2023-02-04T12:28:56;5.20;;;2.40;;
1328;SDS011;658;48.820;9.354;2023-02-04T12:33:00;3.57;;;1.60;;
1328;SDS011;658;48.820;9.354;2023-02-04T12:37:01;2.90;;;2.00;;
1328;SDS011;658;48.820;9.354;2023-02-04T12:41:01;3.57;;;2.00;;
1328;SDS011;658;48.820;9.354;2023-02-04T12:45:02;2.60;;;1.70;;
1328;SDS011;658;48.820;9.354;2023-02-04T12:49:03;4.50;;;2.00;;
1328;SDS011;658;48.820;9.354;2023-02-04T12:53:03;4.77;;;1.80;;
1328;SDS011;658;48.820;9.354;2023-02-04T12:57:05;3.30;;;2.03;;
1328;SDS011;658;48.820;9.354;2023-02-04T13:01:05;3.97;;;2.10;;
1328;SDS011;658;48.820;9.354;2023-02-04T13:05:06;4.43;;;1.73;;
1328;SDS011;658;48.820;9.354;2023-02-04T13:09:08;5.07;;;2.03;;
1328;SDS011;658;48.820;9.354;2023-02-04T13:13:08;2.83;;;1.70;;
1328;SDS011;658;48.820;9.354;2023-02-04T13:17:09;4.93;;;2.03;;
1328;SDS011;658;48.820;9.354;2023-02-04T13:21:10;3.43;;;1.80;;
1328;SDS011;658;48.820;9.354;2023-02-04T13:25:10;4.20;;;1.90;;
1328;SDS011;658;48.820;9.354;2023-02-04T13:29:11;2.97;;;1.80;;
1328;SDS011;658;48.820;9.354;2023-02-04T13:33:12;2.37;;;1.93;;
1328;SDS011;658;48.820;9.354;2023-02-04T13:37:12;2.37;;;1.43;;
1328;SDS011;658;48.820;9.354;2023-02-04T13:41:13;3.03;;;1.57;;
1328;SDS011;658;48.820;9.354;2023-02-04T13:45:14;3.20;;;1.80;;
1328;SDS011;658;48.820;9.354;2023-02-04T13:49:15;4.53;;;1.80;;
1328;SDS011;658;48.820;9.354;2023-02-04T13:53:16;2.30;;;1.70;;
1328;SDS011;658;48.820;9.354;2023-02-04T13:57:16;2.57;;;1.43;;
1328;SDS011;658;48.820;9.354;2023-02-04T14:01:17;3.03;;;1.50;;
1328;SDS011;658;48.820;9.354;2023-02-04T14:05:18;3.33;;;1.40;;
1328;SDS011;658;48.820;9.354;2023-02-04T14:09:19;1.70;;;1.53;;
1328;SDS011;658;48.820;9.354;2023-02-04T14:13:20;2.80;;;1.70;;
1328;SDS011;658;48.820;9.354;2023-02-04T14:17:21;3.37;;;1.33;;
1328;SDS011;658;48.820;9.354;2023-02-04T14:21:21;3.40;;;1.70;;
1328;SDS011;658;48.820;9.354;2023-02-04T14:25:22;2.40;;;1.43;;
1328;SDS011;658;48.820;9.354;2023-02-04T14:29:23;1.47;;;1.10;;
1328;SDS011;658;48.820;9.354;2023-02-04T14:33:23;3.50;;;1.50;;
1328;SDS011;658;48.820;9.354;2023-02-04T14:37:24;2.40;;;1.40;;
1328;SDS011;658;48.820;9.354;2023-02-04T14:41:27;2.77;;;1.30;;
1328;SDS011;658;48.820;9.354;2023-02-04T14:45:30;2.27;;;1.30;;
1328;SDS011;658;48.820;9.354;2023-02-04T14:49:30;2.63;;;1.50;;
1328;SDS011;658;48.820;9.354;2023-02-04T14:53:31;1.73;;;1.47;;
1328;SDS011;658;48.820;9.354;2023-02-04T14:57:32;1.83;;;1.10;;
1328;SDS011;658;48.820;9.354;2023-02-04T15:01:33;2.07;;;1.47;;
1328;SDS011;658;48.820;9.354;2023-02-04T15:05:33;1.37;;;1.27;;
1328;SDS011;658;48.820;9.354;2023-02-04T15:09:34;1.77;;;1.10;;
1328;SDS011;658;48.820;9.354;2023-02-04T15:13:35;1.63;;;1.10;;
1328;SDS011;658;48.820;9.354;2023-02-04T15:17:35;2.83;;;1.47;;
1328;SDS011;658;48.820;9.354;2023-02-04T15:21:36;1.87;;;1.07;;
1328;SDS011;658;48.820;9.354;2023-02-04T15:25:36;2.60;;;1.30;;
1328;SDS011;658;48.820;9.354;2023-02-04T15:29:38;3.43;;;1.47;;
1328;SDS011;658;48.820;9.354;2023-02-04T15:33:39;2.23;;;1.20;;
1328;SDS011;658;48.820;9.354;2023-02-04T15:37:39;2.60;;;1.47;;
1328;SDS011;658;48.820;9.354;2023-02-04T15:41:41;2.07;;;1.47;;
1328;SDS011;658;48.820;9.354;2023-02-04T15:45:41;1.60;;;1.20;;
1328;SDS011;658;48.820;9.354;2023-02-04T15:49:42;3.00;;;1.13;;
1328;SDS011;658;48.820;9.354;2023-02-04T15:53:43;2.37;;;1.50;;
1328;SDS011;658;48.820;9.354;2023-02-04T15:57:44;5.40;;;1.50;;
1328;SDS011;658;48.820;9.354;2023-02-04T16:01:44;3.53;;;2.07;;
1328;SDS011;658;48.820;9.354;2023-02-04T16:05:45;2.10;;;1.50;;
1328;SDS011;658;48.820;9.354;2023-02-04T16:09:45;3.10;;;1.97;;
1328;SDS011;658;48.820;9.354;2023-02-04T16:13:46;3.10;;;1.70;;
1328;SDS011;658;48.820;9.354;2023-02-04T16:17:47;3.13;;;1.90;;
1328;SDS011;658;48.820;9.354;2023-02-04T16:21:48;3.87;;;2.30;;
1328;SDS011;658;48.820;9.354;2023-02-04T16:25:49;4.13;;;2.20;;
1328;SDS011;658;48.820;9.354;2023-02-04T16:29:49;3.60;;;2.50;;
1328;SDS011;658;48.820;9.354;2023-02-04T16:33:50;3.20;;;2.40;;
1328;SDS011;658;48.820;9.354;2023-02-04T16:37:50;3.97;;;2.20;;
1328;SDS011;658;48.820;9.354;2023-02-04T16:41:51;3.20;;;2.07;;
1328;SDS011;658;48.820;9.354;2023-02-04T16:45:52;3.60;;;2.30;;
1328;SDS011;658;48.820;9.354;2023-02-04T16:49:53;2.73;;;2.27;;
1328;SDS011;658;48.820;9.354;2023-02-04T16:53:58;2.87;;;2.30;;
1328;SDS011;658;48.820;9.354;2023-02-04T16:57:59;3.33;;;2.00;;
1328;SDS011;658;48.820;9.354;2023-02-04T17:02:00;2.47;;;1.87;;
1328;SDS011;658;48.820;9.354;2023-02-04T17:06:00;2.97;;;2.10;;
1328;SDS011;658;48.820;9.354;2023-02-04T17:10:01;3.30;;;2.00;;
1328;SDS011;658;48.820;9.354;2023-02-04T17:14:06;3.30;;;2.33;;
1328;SDS011;658;48.820;9.354;2023-02-04T17:18:08;2.80;;;1.90;;
1328;SDS011;658;48.820;9.354;2023-02-04T17:22:09;2.90;;;2.37;;
1328;SDS011;658;48.820;9.354;2023-02-04T17:26:10;4.07;;;2.30;;
1328;SDS011;658;48.820;9.354;2023-02-04T17:30:10;2.13;;;1.50;;
1328;SDS011;658;48.820;9.354;2023-02-04T17:34:11;3.23;;;2.00;;
1328;SDS011;658;48.820;9.354;2023-02-04T17:38:12;5.87;;;1.80;;
1328;SDS011;658;48.820;9.354;2023-02-04T17:42:13;3.90;;;1.70;;
1328;SDS011;658;48.820;9.354;2023-02-04T17:46:13;4.30;;;2.23;;
1328;SDS011;658;48.820;9.354;2023-02-04T17:50:14;3.10;;;1.90;;
1328;SDS011;658;48.820;9.354;2023-02-04T17:54:15;3.93;;;2.40;;
1328;SDS011;658;48.820;9.354;2023-02-04T17:58:18;2.30;;;2.00;;
1328;SDS011;658;48.820;9.354;2023-02-04T18:02:28;1.83;;;1.67;;
1328;SDS011;658;48.820;9.354;2023-02-04T18:06:30;3.43;;;1.90;;
1328;SDS011;658;48.820;9.354;2023-02-04T18:10:31;2.80;;;1.80;;
1328;SDS011;658;48.820;9.354;2023-02-04T18:14:35;4.00;;;1.90;;
1328;SDS011;658;48.820;9.354;2023-02-04T18:18:38;2.17;;;1.80;;
1328;SDS011;658;48.820;9.354;2023-02-04T18:22:39;2.83;;;2.00;;
1328;SDS011;658;48.820;9.354;2023-02-04T18:26:41;3.80;;;2.07;;
1328;SDS011;658;48.820;9.354;2023-02-04T18:30:45;2.10;;;1.90;;
1328;SDS011;658;48.820;9.354;2023-02-04T18:34:51;2.00;;;1.80;;
1328;SDS011;658;48.820;9.354;2023-02-04T18:38:53;3.43;;;1.73;;
1328;SDS011;658;48.820;9.354;2023-02-04T18:43:14;2.97;;;1.83;;
1328;SDS011;658;48.820;9.354;2023-02-04T18:47:29;2.13;;;1.90;;
1328;SDS011;658;48.820;9.354;2023-02-04T18:51:32;4.07;;;2.83;;
1328;SDS011;658;48.820;9.354;2023-02-04T18:55:38;3.23;;;2.50;;
1328;SDS011;658;48.820;9.354;2023-02-04T18:59:46;6.00;;;4.10;;
1328;SDS011;658;48.820;9.354;2023-02-04T19:08:42;11.90;;;5.63;;
1328;SDS011;658;48.820;9.354;2023-02-04T19:12:21;11.63;;;6.67;;
1328;SDS011;658;48.820;9.354;2023-02-04T19:16:30;13.20;;;7.87;;
1328;SDS011;658;48.820;9.354;2023-02-04T19:20:34;15.07;;;7.90;;
1328;SDS011;658;48.820;9.354;2023-02-04T19:24:37;16.13;;;9.60;;
1328;SDS011;658;48.820;9.354;2023-02-04T19:28:38;16.27;;;9.37;;
1328;SDS011;658;48.820;9.354;2023-02-04T19:32:41;16.70;;;9.50;;
1328;SDS011;658;48.820;9.354;2023-02-04T19:36:44;18.60;;;10.60;;
1328;SDS011;658;48.820;9.354;2023-02-04T19:40:46;19.63;;;11.07;;
1328;SDS011;658;48.820;9.354;2023-02-04T19:44:50;21.60;;;11.27;;
1328;SDS011;658;48.820;9.354;2023-02-04T19:48:51;22.40;;;11.77;;
1328;SDS011;658;48.820;9.354;2023-02-04T19:52:59;18.60;;;10.60;;
1328;SDS011;658;48.820;9.354;2023-02-04T19:57:01;20.07;;;10.90;;
1328;SDS011;658;48.820;9.354;2023-02-04T20:01:16;22.63;;;11.77;;
1328;SDS011;658;48.820;9.354;2023-02-04T20:05:30;24.00;;;13.60;;
1328;SDS011;658;48.820;9.354;2023-02-04T20:09:40;17.63;;;11.70;;
1328;SDS011;658;48.820;9.354;2023-02-04T20:13:41;25.00;;;11.60;;
1328;SDS011;658;48.820;9.354;2023-02-04T20:17:45;27.33;;;12.60;;
1328;SDS011;658;48.820;9.354;2023-02-04T20:21:59;25.43;;;12.73;;
1328;SDS011;658;48.820;9.354;2023-02-04T20:26:13;20.27;;;11.03;;
1328;SDS011;658;48.820;9.354;2023-02-04T20:34:18;21.13;;;12.03;;
1328;SDS011;658;48.820;9.354;2023-02-04T20:38:21;22.10;;;11.63;;
1328;SDS011;658;48.820;9.354;2023-02-04T20:42:24;21.73;;;11.67;;
1328;SDS011;658;48.820;9.354;2023-02-04T20:46:28;20.57;;;12.13;;
1328;SDS011;658;48.820;9.354;2023-02-04T20:54:52;19.07;;;11.93;;
1328;SDS011;658;48.820;9.354;2023-02-04T20:58:55;18.70;;;10.67;;
1328;SDS011;658;48.820;9.354;2023-02-04T21:07:15;18.13;;;10.80;;
1328;SDS011;658;48.820;9.354;2023-02-04T21:11:18;18.20;;;12.40;;
1328;SDS011;658;48.820;9.354;2023-02-04T21:15:19;21.60;;;12.47;;
1328;SDS011;658;48.820;9.354;2023-02-04T21:19:20;20.73;;;12.40;;
1328;SDS011;658;48.820;9.354;2023-02-04T21:23:22;17.33;;;12.40;;
1328;SDS011;658;48.820;9.354;2023-02-04T21:27:22;20.70;;;12.10;;
1328;SDS011;658;48.820;9.354;2023-02-04T21:31:23;22.10;;;13.80;;
1328;SDS011;658;48.820;9.354;2023-02-04T21:35:24;20.60;;;14.40;;
1328;SDS011;658;48.820;9.354;2023-02-04T21:39:25;20.07;;;12.97;;
1328;SDS011;658;48.820;9.354;2023-02-04T21:43:26;20.67;;;13.10;;
1328;SDS011;658;48.820;9.354;2023-02-04T21:47:26;19.30;;;14.13;;
1328;SDS011;658;48.820;9.354;2023-02-04T21:51:27;24.37;;;13.80;;
1328;SDS011;658;48.820;9.354;2023-02-04T21:55:28;23.07;;;13.30;;
1328;SDS011;658;48.820;9.354;2023-02-04T21:59:29;24.50;;;13.20;;
1328;SDS011;658;48.820;9.354;2023-02-04T22:03:30;24.23;;;14.63;;
1328;SDS011;658;48.820;9.354;2023-02-04T22:07:30;19.10;;;13.17;;
1328;SDS011;658;48.820;9.354;2023-02-04T22:11:31;22.93;;;13.60;;
1328;SDS011;658;48.820;9.354;2023-02-04T22:15:32;21.57;;;13.40;;
1328;SDS011;658;48.820;9.354;2023-02-04T22:19:32;20.37;;;13.73;;
1328;SDS011;658;48.820;9.354;2023-02-04T22:23:33;23.00;;;14.10;;
1328;SDS011;658;48.820;9.354;2023-02-04T22:27:34;22.40;;;12.47;;
1328;SDS011;658;48.820;9.354;2023-02-04T22:31:34;20.30;;;13.70;;
1328;SDS011;658;48.820;9.354;2023-02-04T22:35:35;22.10;;;13.50;;
1328;SDS011;658;48.820;9.354;2023-02-04T22:39:36;20.83;;;13.20;;
1328;SDS011;658;48.820;9.354;2023-02-04T22:43:37;24.73;;;13.97;;
1328;SDS011;658;48.820;9.354;2023-02-04T22:47:37;23.60;;;14.07;;
1328;SDS011;658;48.820;9.354;2023-02-04T22:51:38;20.00;;;13.73;;
1328;SDS011;658;48.820;9.354;2023-02-04T22:55:39;18.70;;;12.77;;
1328;SDS011;658;48.820;9.354;2023-02-04T22:59:40;21.57;;;14.00;;
1328;SDS011;658;48.820;9.354;2023-02-04T23:03:40;22.13;;;13.60;;
1328;SDS011;658;48.820;9.354;2023-02-04T23:07:41;21.27;;;13.40;;
1328;SDS011;658;48.820;9.354;2023-02-04T23:11:42;18.70;;;12.93;;
1328;SDS011;658;48.820;9.354;2023-02-04T23:15:42;19.43;;;13.27;;
1328;SDS011;658;48.820;9.354;2023-02-04T23:19:43;18.40;;;12.30;;
1328;SDS011;658;48.820;9.354;2023-02-04T23:23:44;19.23;;;13.00;;
1328;SDS011;658;48.820;9.354;2023-02-04T23:27:45;19.00;;;11.63;;
1328;SDS011;658;48.820;9.354;2023-02-04T23:31:46;21.60;;;12.80;;
1328;SDS011;658;48.820;9.354;2023-02-04T23:35:46;15.87;;;11.70;;
1328;SDS011;658;48.820;9.354;2023-02-04T23:39:47;18.20;;;12.37;;
1328;SDS011;658;48.820;9.354;2023-02-04T23:43:48;17.30;;;12.13;;
1328;SDS011;658;48.820;9.354;2023-02-04T23:47:49;17.70;;;12.00;;
1328;SDS011;658;48.820;9.354;2023-02-04T23:51:49;13.40;;;10.83;;
1328;SDS011;658;48.820;9.354;2023-02-04T23:55:50;14.43;;;10.70;;
1328;SDS011;658;48.820;9.354;2023-02-04T23:59:51;15.23;;;10.97;;
